Time;durP1;ratioP1;P1;durP2;ratioP2;P2;SDS_P1;SDS_P2;PMS_P1;PMS_P2;Temp;Humidity;BMP_temperature;BMP_pressure;BME280_temperature;BME280_humidity;BME280_pressure;Samples;Min_cycle;Max_cycle;Signal;HPM_P1;HPM_P2
2024/03/13 00:00:10;;;;;;;5.00;3.50;;;;;;;2.63;76.90;98786.91;105608;1251;61165;-28
2024/03/13 00:02:42;;;;;;;4.00;3.30;;;;;;;3.12;75.12;98783.48;105720;1250;73800;-28
2024/03/13 00:05:09;;;;;;;2.40;2.20;;;;;;;3.07;74.92;98789.72;105716;1250;74428;-28
2024/03/13 00:07:37;;;;;;;4.50;3.90;;;;;;;2.92;75.44;98786.06;105351;1251;308025;-29
2024/03/13 00:10:05;;;;;;;3.20;2.80;;;;;;;2.73;75.98;98783.45;105508;1252;61142;-28
2024/03/13 00:12:34;;;;;;;4.00;3.50;;;;;;;2.68;76.94;98779.31;105771;1250;61186;-28
2024/03/13 00:15:03;;;;;;;3.20;2.60;;;;;;;3.14;75.40;98777.36;105755;1250;73630;-29
2024/03/13 00:17:30;;;;;;;2.70;2.30;;;;;;;3.19;74.67;98772.60;105684;1250;74212;-29
2024/03/13 00:19:57;;;;;;;3.20;2.90;;;;;;;2.97;75.19;98769.85;105925;1251;72545;-28
2024/03/13 00:22:25;;;;;;;3.90;2.80;;;;;;;2.77;75.86;98770.05;105980;1251;61111;-28
2024/03/13 00:24:53;;;;;;;2.50;2.30;;;;;;;2.68;76.65;98768.52;105790;1255;61776;-28
2024/03/13 00:27:20;;;;;;;3.40;2.50;;;;;;;3.20;75.40;98768.29;105644;1258;73677;-28
2024/03/13 00:29:47;;;;;;;3.50;3.10;;;;;;;3.30;74.31;98758.27;105826;1254;74163;-29
2024/03/13 00:32:16;;;;;;;6.10;3.00;;;;;;;3.11;74.64;98762.61;105758;1256;72762;-29
2024/03/13 00:34:45;;;;;;;5.40;3.50;;;;;;;2.81;75.47;98761.45;105612;1253;61059;-29
2024/03/13 00:37:12;;;;;;;3.60;2.40;;;;;;;2.62;76.26;98762.65;105840;1257;61163;-30
2024/03/13 00:39:39;;;;;;;2.60;2.30;;;;;;;2.77;76.68;98762.20;105605;1258;73840;-30
2024/03/13 00:42:06;;;;;;;2.10;1.80;;;;;;;3.25;74.93;98758.74;105802;1256;74161;-30
2024/03/13 00:44:33;;;;;;;3.30;3.00;;;;;;;3.26;74.28;98755.73;106003;1250;72971;-30
2024/03/13 00:47:01;;;;;;;5.60;3.70;;;;;;;3.05;74.74;98758.77;105887;1253;61037;-30
2024/03/13 00:49:29;;;;;;;5.60;3.30;;;;;;;2.88;75.33;98757.13;105655;1256;61086;-30
2024/03/13 00:51:56;;;;;;;4.70;3.30;;;;;;;2.63;76.43;98757.15;105747;1251;73656;-29
2024/03/13 00:54:22;;;;;;;4.70;3.70;;;;;;;2.98;75.88;98755.24;105703;1250;74385;-29
2024/03/13 00:56:50;;;;;;;5.60;3.40;;;;;;;3.29;74.56;98751.13;105752;1254;72488;-29
2024/03/13 00:59:20;;;;;;;2.90;2.50;;;;;;;3.23;74.25;98748.02;105880;1250;61182;-29
2024/03/13 01:01:48;;;;;;;3.10;2.00;;;;;;;3.01;74.82;98748.73;105925;1256;61168;-29
2024/03/13 01:04:16;;;;;;;3.90;3.00;;;;;;;2.76;75.58;98743.55;105870;1250;72847;-29
2024/03/13 01:06:43;;;;;;;5.90;4.30;;;;;;;2.90;75.82;98741.73;105738;1250;74357;-29
2024/03/13 01:09:10;;;;;;;4.90;2.20;;;;;;;3.31;74.25;98738.17;105932;1251;71726;-30
2024/03/13 01:11:36;;;;;;;3.40;2.90;;;;;;;3.35;73.55;98737.58;105984;1251;61064;-29
2024/03/13 01:14:03;;;;;;;4.00;3.40;;;;;;;3.18;74.05;98740.05;105953;1255;61119;-29
2024/03/13 01:16:30;;;;;;;2.30;2.00;;;;;;;2.83;74.90;98739.77;105821;1251;73706;-29
2024/03/13 01:18:59;;;;;;;5.60;4.00;;;;;;;2.73;76.05;98737.06;105730;1250;74429;-29
2024/03/13 01:21:25;;;;;;;6.00;4.30;;;;;;;3.17;74.69;98729.14;105778;1254;72646;-29
2024/03/13 01:23:52;;;;;;;4.90;3.20;;;;;;;3.25;74.12;98732.31;105872;1254;61145;-29
2024/03/13 01:26:20;;;;;;;4.00;3.10;;;;;;;3.19;74.09;98729.73;105917;1256;61115;-29
2024/03/13 01:28:47;;;;;;;3.30;2.60;;;;;;;2.97;74.74;98732.11;105763;1250;73883;-29
2024/03/13 01:31:14;;;;;;;4.20;2.90;;;;;;;2.75;75.89;98729.21;105905;1256;74258;-29
2024/03/13 01:33:41;;;;;;;2.50;2.30;;;;;;;3.29;74.71;98724.21;105879;1251;72553;-29
2024/03/13 01:36:08;;;;;;;4.60;3.00;;;;;;;3.54;73.45;98729.33;105996;1250;61066;-29
2024/03/13 01:38:35;;;;;;;3.70;3.00;;;;;;;3.44;73.52;98729.02;105818;1256;61164;-29
2024/03/13 01:57:56;;;;;;;7.00;5.70;;;;;;;2.69;76.47;98721.33;105930;1254;74138;-29
2024/03/13 02:03:10;;;;;;;4.10;2.80;;;;;;;3.27;74.81;98723.30;105880;1259;61177;-29
2024/03/13 02:05:37;;;;;;;4.70;3.70;;;;;;;3.19;74.97;98726.45;105897;1256;61097;-29
2024/03/13 02:08:06;;;;;;;3.70;3.00;;;;;;;2.97;75.55;98727.48;105957;1251;73887;-29
2024/03/13 02:10:34;;;;;;;4.40;3.70;;;;;;;2.77;76.61;98723.26;105923;1257;75757;-29
2024/03/13 02:13:06;;;;;;;6.30;4.50;;;;;;;3.23;75.50;98723.34;105907;1257;73070;-29
2024/03/13 02:15:33;;;;;;;3.20;2.90;;;;;;;3.35;74.71;98719.05;105564;1259;61178;-29
2024/03/13 02:18:00;;;;;;;5.90;4.20;;;;;;;3.25;74.64;98718.45;105866;1256;61081;-29
2024/03/13 02:20:33;;;;;;;4.40;3.30;;;;;;;2.96;75.46;98717.80;105948;1255;72667;-29
2024/03/13 02:23:04;;;;;;;4.30;3.80;;;;;;;2.73;76.33;98722.83;105741;1259;74821;-29
2024/03/13 02:25:34;;;;;;;6.40;3.60;;;;;;;3.06;75.92;98725.98;105960;1251;72434;-29
2024/03/13 02:28:01;;;;;;;5.90;3.80;;;;;;;3.48;74.19;98723.14;105932;1251;61138;-29
2024/03/13 02:30:28;;;;;;;7.80;5.50;;;;;;;3.46;73.87;98719.63;106004;1252;61099;-29
2024/03/13 02:32:55;;;;;;;8.90;5.50;;;;;;;3.13;74.81;98716.33;105723;1250;73747;-29
2024/03/13 02:35:21;;;;;;;3.10;2.50;;;;;;;2.81;76.08;98717.61;105919;1252;74285;-29
2024/03/13 02:37:48;;;;;;;4.50;3.90;;;;;;;3.12;75.58;98720.66;105939;1251;72975;-29
2024/03/13 02:40:16;;;;;;;8.90;4.90;;;;;;;3.43;74.02;98713.98;105914;1251;61091;-29
2024/03/13 02:42:44;;;;;;;7.00;5.10;;;;;;;3.31;74.18;98713.61;105785;1257;61153;-28
2024/03/13 02:45:13;;;;;;;4.90;3.90;;;;;;;3.16;74.70;98713.23;105902;1256;73672;-29
2024/03/13 02:47:41;;;;;;;7.50;4.50;;;;;;;2.84;75.69;98713.11;105911;1258;74204;-29
2024/03/13 02:50:11;;;;;;;3.90;2.70;;;;;;;3.21;75.45;98710.05;105898;1257;70316;-29
2024/03/13 02:52:39;;;;;;;6.70;4.20;;;;;;;3.56;73.70;98712.35;105872;1257;61224;-29
2024/03/13 02:55:07;;;;;;;4.20;2.70;;;;;;;3.55;73.54;98711.20;106011;1252;61048;-29
2024/03/13 02:57:33;;;;;;;6.10;4.30;;;;;;;3.31;74.16;98708.45;105756;1259;72880;-29
2024/03/13 03:00:00;;;;;;;6.60;3.10;;;;;;;3.11;74.60;98706.98;105906;1251;74296;-29
2024/03/13 03:02:27;;;;;;;6.30;4.20;;;;;;;2.81;75.89;98708.30;105795;1257;72655;-28
2024/03/13 03:04:56;;;;;;;4.10;2.90;;;;;;;3.18;75.01;98706.95;105679;1251;61038;-29
2024/03/13 03:07:23;;;;;;;5.00;3.20;;;;;;;3.45;73.90;98707.15;105673;1258;61262;-29
2024/03/13 03:09:50;;;;;;;4.20;3.00;;;;;;;3.34;73.64;98701.45;105945;1251;73760;-28
2024/03/13 03:12:17;;;;;;;5.60;4.70;;;;;;;3.15;74.19;98706.24;105838;1256;74198;-28
2024/03/13 03:14:44;;;;;;;6.00;4.10;;;;;;;2.87;75.32;98706.27;105936;1251;72640;-28
2024/03/13 03:17:11;;;;;;;6.70;4.10;;;;;;;3.22;74.94;98706.91;105975;1250;60983;-28
2024/03/13 03:19:38;;;;;;;8.00;4.20;;;;;;;3.56;73.53;98702.59;105778;1255;61107;-28
2024/03/13 03:22:06;;;;;;;7.90;4.30;;;;;;;3.53;73.26;98705.52;105716;1256;73707;-28
2024/03/13 03:24:33;;;;;;;5.40;3.70;;;;;;;3.44;73.45;98703.65;105643;1256;74182;-28
2024/03/13 03:27:00;;;;;;;5.20;3.80;;;;;;;3.10;74.59;98700.69;105879;1255;72643;-28
2024/03/13 03:29:27;;;;;;;6.50;5.50;;;;;;;2.89;75.43;98703.05;105787;1251;61207;-28
2024/03/13 03:31:56;;;;;;;7.10;4.80;;;;;;;3.29;74.67;98702.75;105849;1252;61099;-28
2024/03/13 03:34:24;;;;;;;5.60;4.20;;;;;;;3.55;73.39;98702.09;105812;1256;74294;-28
2024/03/13 03:36:52;;;;;;;4.60;3.60;;;;;;;3.43;73.42;98697.66;105835;1251;74871;-27
2024/03/13 03:39:24;;;;;;;7.00;5.10;;;;;;;3.19;74.10;98702.46;105810;1257;72618;-28
2024/03/13 03:41:52;;;;;;;5.90;4.00;;;;;;;2.90;75.12;98701.67;105847;1251;61057;-28
2024/03/13 03:44:19;;;;;;;6.10;4.10;;;;;;;3.15;74.96;98705.59;105893;1251;61163;-28
2024/03/13 03:46:45;;;;;;;6.40;4.20;;;;;;;3.67;73.20;98706.38;105829;1251;73639;-28
2024/03/13 03:49:12;;;;;;;6.90;5.30;;;;;;;3.65;72.67;98707.05;105817;1254;74334;-28
2024/03/13 03:51:39;;;;;;;5.40;4.10;;;;;;;3.36;73.41;98709.75;105845;1264;72503;-28
2024/03/13 03:54:06;;;;;;;7.70;4.60;;;;;;;3.17;74.07;98707.52;105767;1257;61118;-28
2024/03/13 03:56:38;;;;;;;4.40;3.40;;;;;;;3.02;75.03;98706.16;105750;1256;61383;-27
2024/03/13 03:59:10;;;;;;;6.30;4.40;;;;;;;3.54;73.62;98707.49;105654;1251;73867;-27
2024/03/13 04:01:36;;;;;;;5.10;3.80;;;;;;;3.66;72.62;98708.91;105722;1256;74294;-27
2024/03/13 04:04:06;;;;;;;4.40;3.40;;;;;;;3.41;73.37;98710.64;105921;1256;72462;-27
2024/03/13 04:06:33;;;;;;;8.70;6.20;;;;;;;3.07;74.54;98713.42;105848;1254;61113;-27
2024/03/13 04:09:14;;;;;;;4.30;3.70;;;;;;;2.81;75.49;98712.12;105957;1264;61073;-27
2024/03/13 04:11:42;;;;;;;7.20;4.50;;;;;;;3.31;74.63;98711.91;105738;1256;73628;-27
2024/03/13 04:14:10;;;;;;;6.80;4.30;;;;;;;3.62;73.06;98706.34;105706;1257;72970;-27
2024/03/13 04:16:44;;;;;;;5.70;4.40;;;;;;;3.57;72.77;98710.39;105880;1251;73003;-27
2024/03/13 04:19:11;;;;;;;7.10;5.10;;;;;;;3.46;72.93;98713.31;105647;1257;61160;-27
2024/03/13 04:21:38;;;;;;;8.50;5.80;;;;;;;3.11;73.99;98713.35;105875;1255;61236;-27
2024/03/13 04:24:08;;;;;;;8.30;6.20;;;;;;;2.94;75.12;98709.65;105681;1256;74426;-27
2024/03/13 04:26:39;;;;;;;5.90;3.70;;;;;;;3.39;73.78;98708.71;105605;1261;74259;-27
2024/03/13 04:29:06;;;;;;;5.80;3.70;;;;;;;3.50;72.83;98705.33;105419;1257;72479;-27
2024/03/13 04:31:33;;;;;;;13.90;5.70;;;;;;;3.34;73.29;98710.69;105751;1251;61051;-27
2024/03/13 04:34:00;;;;;;;9.30;5.40;;;;;;;3.07;73.88;98701.76;105914;1256;61167;-27
2024/03/13 04:36:27;;;;;;;7.00;4.40;;;;;;;2.85;74.90;98712.40;105739;1257;73719;-27
2024/03/13 04:38:54;;;;;;;9.50;6.00;;;;;;;2.88;75.50;98709.84;105929;1255;74349;-27
2024/03/13 04:41:22;;;;;;;4.20;2.80;;;;;;;3.36;73.94;98714.38;105907;1254;73135;-27
2024/03/13 04:43:49;;;;;;;6.90;4.40;;;;;;;3.49;73.13;98707.64;105962;1256;61066;-27
2024/03/13 04:46:19;;;;;;;7.40;4.10;;;;;;;3.28;73.49;98708.80;105806;1261;61129;-27
2024/03/13 04:48:47;;;;;;;5.50;4.20;;;;;;;3.08;74.11;98713.88;105649;1266;74250;-27
2024/03/13 04:51:14;;;;;;;5.80;4.40;;;;;;;2.73;75.15;98711.30;105725;1257;74113;-27
2024/03/13 04:53:43;;;;;;;10.00;7.30;;;;;;;2.90;75.44;98714.85;105885;1255;72651;-26
2024/03/13 04:56:13;;;;;;;6.20;4.10;;;;;;;3.36;73.57;98716.27;105864;1251;61048;-27
2024/03/13 04:58:40;;;;;;;3.90;3.30;;;;;;;3.43;72.77;98715.36;105732;1252;61105;-27
2024/03/13 05:01:07;;;;;;;7.70;5.10;;;;;;;3.29;73.13;98716.98;105998;1255;73635;-27
2024/03/13 05:03:35;;;;;;;7.10;5.60;;;;;;;2.93;74.15;98719.30;105736;1261;74062;-27
2024/03/13 05:06:02;;;;;;;10.00;4.90;;;;;;;2.67;75.19;98716.63;105964;1251;71883;-27
2024/03/13 05:08:29;;;;;;;11.70;7.20;;;;;;;3.02;74.47;98718.14;105964;1251;61039;-27
2024/03/13 05:10:56;;;;;;;8.10;4.10;;;;;;;3.42;72.71;98724.30;105983;1254;61125;-27
2024/03/13 05:13:23;;;;;;;5.40;3.90;;;;;;;3.29;72.78;98724.52;106009;1257;73636;-27
2024/03/13 05:15:51;;;;;;;9.60;4.90;;;;;;;3.08;73.49;98720.54;105662;1256;74245;-27
2024/03/13 05:18:19;;;;;;;6.80;5.00;;;;;;;2.73;74.71;98727.09;105568;1254;72529;-27
2024/03/13 05:20:46;;;;;;;7.70;6.00;;;;;;;2.96;74.77;98723.46;105746;1251;61039;-27
2024/03/13 05:23:13;;;;;;;12.70;8.00;;;;;;;3.24;73.39;98725.98;105826;1251;61196;-27
2024/03/13 05:25:39;;;;;;;8.10;5.60;;;;;;;3.19;73.11;98726.15;105969;1256;73620;-27
2024/03/13 05:28:06;;;;;;;4.80;4.10;;;;;;;3.09;73.46;98727.02;105934;1257;74687;-27
2024/03/13 05:30:33;;;;;;;7.00;5.30;;;;;;;2.94;73.89;98729.23;105948;1257;72418;-26
2024/03/13 05:33:00;;;;;;;7.10;5.20;;;;;;;2.67;74.95;98725.35;105872;1251;61144;-27
2024/03/13 05:35:27;;;;;;;8.80;4.60;;;;;;;2.98;74.62;98728.83;105956;1254;61098;-26
2024/03/13 05:37:54;;;;;;;8.10;5.40;;;;;;;3.12;73.66;98730.61;105767;1251;74265;-28
2024/03/13 05:40:21;;;;;;;6.70;5.00;;;;;;;3.10;73.71;98732.29;105559;1251;74360;-27
2024/03/13 05:42:48;;;;;;;4.70;2.90;;;;;;;2.91;74.11;98741.20;105914;1255;73061;-27
2024/03/13 05:45:15;;;;;;;8.40;4.40;;;;;;;2.72;74.88;98743.25;105787;1251;61153;-26
2024/03/13 05:47:42;;;;;;;11.30;6.60;;;;;;;2.92;74.66;98745.76;105857;1256;61096;-26
2024/03/13 05:50:12;;;;;;;9.80;6.70;;;;;;;3.24;73.30;98746.63;105976;1251;74349;-26
2024/03/13 05:52:39;;;;;;;10.90;5.10;;;;;;;3.12;73.22;98741.98;105940;1251;75858;-28
2024/03/13 05:55:06;;;;;;;11.50;5.20;;;;;;;2.99;73.77;98750.05;105857;1251;72659;-26
2024/03/13 05:57:33;;;;;;;8.60;6.00;;;;;;;2.74;74.62;98750.49;105836;1250;61741;-27
2024/03/13 06:00:07;;;;;;;7.90;6.00;;;;;;;2.88;74.95;98750.29;105915;1257;61167;-27
2024/03/13 06:02:40;;;;;;;6.00;4.80;;;;;;;3.38;73.29;98756.27;105815;1251;74410;-26
2024/03/13 06:05:11;;;;;;;7.50;5.60;;;;;;;3.35;72.76;98751.98;105804;1257;73233;-26
2024/03/13 06:07:38;;;;;;;6.80;5.40;;;;;;;3.13;73.38;98755.08;105789;1254;72743;-26
2024/03/13 06:10:06;;;;;;;7.30;5.40;;;;;;;2.92;74.23;98756.08;105797;1254;61059;-26
2024/03/13 06:12:34;;;;;;;10.20;6.80;;;;;;;2.62;75.32;98759.23;105572;1257;61145;-26
2024/03/13 06:15:07;;;;;;;7.20;4.80;;;;;;;2.94;74.84;98761.96;105585;1251;73866;-26
2024/03/13 06:17:34;;;;;;;8.80;5.20;;;;;;;3.46;73.00;98763.73;105680;1257;74147;-26
2024/03/13 06:20:12;;;;;;;8.80;6.60;;;;;;;3.46;72.70;98765.09;105910;1251;72607;-26
2024/03/13 06:22:42;;;;;;;9.00;5.20;;;;;;;3.10;73.47;98763.34;105835;1257;61064;-26
2024/03/13 06:25:09;;;;;;;7.00;5.00;;;;;;;2.83;74.48;98766.84;105664;1258;61777;-26
2024/03/13 06:27:37;;;;;;;8.20;5.20;;;;;;;2.93;74.94;98769.03;105602;1257;74324;-26
2024/03/13 06:30:05;;;;;;;8.30;5.00;;;;;;;3.46;73.01;98767.00;105759;1251;74441;-26
2024/03/13 06:32:33;;;;;;;5.20;3.70;;;;;;;3.57;72.16;98772.54;105811;1256;72449;-26
2024/03/13 06:35:03;;;;;;;9.50;5.60;;;;;;;3.35;72.53;98770.38;105907;1256;61103;-26
2024/03/13 06:37:31;;;;;;;15.20;8.40;;;;;;;3.10;73.45;98777.89;105752;1257;61173;-26
2024/03/13 06:39:59;;;;;;;10.70;7.60;;;;;;;2.79;74.77;98778.20;105846;1255;72814;-26
2024/03/13 06:42:26;;;;;;;7.80;5.80;;;;;;;3.13;73.98;98779.64;105703;1251;74147;-26
2024/03/13 06:44:53;;;;;;;10.10;6.40;;;;;;;3.30;73.02;98778.52;105941;1251;71648;-26
2024/03/13 06:47:22;;;;;;;15.60;10.40;;;;;;;3.27;73.05;98784.19;105936;1251;61061;-26
2024/03/13 06:49:49;;;;;;;12.00;8.30;;;;;;;3.03;73.70;98782.92;105855;1254;61531;-26
2024/03/13 06:52:16;;;;;;;8.40;5.70;;;;;;;2.92;74.28;98787.61;105916;1251;73464;-26
2024/03/13 06:54:44;;;;;;;7.30;5.60;;;;;;;3.21;74.24;98784.54;106021;1255;74057;-26
2024/03/13 06:57:12;;;;;;;8.50;6.30;;;;;;;3.81;72.16;98786.65;105772;1254;73231;-27
2024/03/13 06:59:44;;;;;;;11.10;7.20;;;;;;;3.95;71.30;98785.36;105587;1255;61131;-27
2024/03/13 07:02:14;;;;;;;10.50;7.50;;;;;;;3.71;71.66;98787.39;105807;1251;61045;-27
2024/03/13 07:04:42;;;;;;;7.20;4.20;;;;;;;3.45;72.27;98786.81;105950;1251;74322;-27
2024/03/13 07:07:09;;;;;;;11.00;6.00;;;;;;;3.20;73.24;98792.13;105902;1252;74506;-27
2024/03/13 07:09:37;;;;;;;4.20;2.90;;;;;;;3.30;73.56;98791.73;105987;1252;72867;-27
2024/03/13 07:12:04;;;;;;;8.30;4.90;;;;;;;3.73;72.01;98789.50;105737;1253;61618;-27
2024/03/13 07:14:31;;;;;;;6.80;4.90;;;;;;;3.80;71.19;98788.75;105849;1254;61121;-27
2024/03/13 07:16:58;;;;;;;6.10;4.70;;;;;;;3.79;71.18;98787.64;105787;1252;73424;-28
2024/03/13 07:19:25;;;;;;;12.20;7.80;;;;;;;3.51;71.70;98789.16;105849;1254;75735;-27
2024/03/13 07:21:52;;;;;;;8.40;4.70;;;;;;;3.22;72.75;98794.73;105936;1251;73023;-27
2024/03/13 07:24:19;;;;;;;5.60;3.80;;;;;;;3.44;73.02;98789.91;105954;1251;61105;-28
2024/03/13 07:26:46;;;;;;;8.20;6.20;;;;;;;3.95;71.15;98793.23;105952;1254;61096;-28
2024/03/13 07:29:13;;;;;;;7.30;5.10;;;;;;;3.94;70.53;98791.02;105954;1254;75142;-28
2024/03/13 07:31:40;;;;;;;6.30;3.40;;;;;;;3.71;71.17;98793.39;105846;1251;73190;-28
2024/03/13 07:34:09;;;;;;;6.40;5.10;;;;;;;3.50;71.61;98793.55;105894;1251;72237;-29
2024/03/13 07:36:38;;;;;;;6.30;5.00;;;;;;;3.19;72.80;98794.04;105748;1251;61071;-28
2024/03/13 07:39:10;;;;;;;6.80;5.30;;;;;;;3.22;73.44;98795.92;105603;1251;61060;-29
2024/03/13 07:41:37;;;;;;;5.70;4.60;;;;;;;3.74;71.60;98794.78;105870;1251;73814;-29
2024/03/13 07:44:03;;;;;;;10.20;6.00;;;;;;;3.86;70.93;98797.04;105792;1254;73628;-27
2024/03/13 07:46:30;;;;;;;4.40;3.50;;;;;;;3.73;70.85;98801.34;105904;1251;72202;-29
2024/03/13 07:48:57;;;;;;;7.70;5.70;;;;;;;3.52;71.71;98803.22;105837;1251;61093;-28
2024/03/13 07:51:24;;;;;;;10.50;5.90;;;;;;;3.25;72.66;98804.90;105701;1253;61125;-29
2024/03/13 07:53:51;;;;;;;9.90;6.20;;;;;;;3.56;72.56;98804.90;105722;1251;75227;-27
2024/03/13 07:56:20;;;;;;;8.10;5.80;;;;;;;3.96;71.05;98806.08;105917;1254;75100;-26
2024/03/13 07:58:49;;;;;;;6.50;4.40;;;;;;;3.91;70.63;98803.09;105822;1254;74183;-28
2024/03/13 08:01:17;;;;;;;4.90;3.90;;;;;;;3.75;70.89;98806.44;105925;1251;61078;-26
2024/03/13 08:03:45;;;;;;;6.80;4.70;;;;;;;3.49;71.69;98809.39;105855;1254;61090;-25
2024/03/13 08:06:11;;;;;;;10.40;6.10;;;;;;;3.26;72.52;98811.34;105753;1254;73888;-26
2024/03/13 08:08:56;;;;;;;8.60;4.40;;;;;;;3.41;72.73;98807.27;105927;1252;75540;-26
2024/03/13 08:11:41;;;;;;;5.90;3.90;;;;;;;3.96;70.90;98810.35;105927;1250;73092;-26
2024/03/13 08:14:26;;;;;;;4.70;3.80;;;;;;;3.98;70.62;98810.77;105850;1251;61061;-26
2024/03/13 08:17:11;;;;;;;5.80;4.50;;;;;;;3.71;70.94;98810.59;105662;1251;62377;-26
2024/03/13 08:19:56;;;;;;;8.80;6.20;;;;;;;3.43;71.96;98810.39;105961;1251;72827;-26
2024/03/13 08:22:44;;;;;;;7.80;4.80;;;;;;;3.40;72.71;98814.33;105789;1251;74237;-26
2024/03/13 08:25:29;;;;;;;4.20;3.50;;;;;;;3.86;70.97;98819.14;105771;1254;72640;-26
2024/03/13 08:28:14;;;;;;;6.70;5.20;;;;;;;3.84;70.65;98819.27;105827;1251;61495;-26
2024/03/13 08:30:59;;;;;;;5.20;4.20;;;;;;;3.77;70.86;98824.48;105887;1252;60979;-26
2024/03/13 08:33:45;;;;;;;4.70;3.60;;;;;;;3.34;72.15;98824.46;105825;1251;75256;-26
2024/03/13 08:36:32;;;;;;;6.30;4.70;;;;;;;3.60;72.22;98829.90;105743;1251;75304;-26
2024/03/13 08:39:25;;;;;;;6.70;5.20;;;;;;;4.12;70.48;98823.85;105913;1251;73097;-26
2024/03/13 08:42:10;;;;;;;8.40;5.80;;;;;;;4.08;69.94;98826.81;105874;1251;61638;-26
2024/03/13 08:44:55;;;;;;;5.00;3.60;;;;;;;3.80;70.72;98825.35;105888;1251;61065;-26
2024/03/13 08:47:40;;;;;;;8.60;6.80;;;;;;;3.52;71.74;98825.38;105969;1251;75196;-26
2024/03/13 08:50:25;;;;;;;5.20;4.40;;;;;;;3.32;72.62;98826.60;105942;1253;74021;-26
2024/03/13 08:53:14;;;;;;;5.60;3.60;;;;;;;3.76;71.34;98830.02;105933;1251;73105;-26
2024/03/13 08:55:59;;;;;;;5.70;4.50;;;;;;;3.85;71.03;98831.39;105857;1254;61154;-24
2024/03/13 08:58:45;;;;;;;9.80;6.70;;;;;;;3.64;71.58;98831.76;105936;1254;61244;-26
2024/03/13 09:01:30;;;;;;;3.40;2.50;;;;;;;3.29;72.79;98834.70;105863;1251;74106;-26
2024/03/13 09:04:15;;;;;;;5.90;3.90;;;;;;;3.84;72.06;98840.59;105759;1255;75489;-26
2024/03/13 09:07:02;;;;;;;7.50;5.10;;;;;;;4.20;70.62;98842.63;105735;1251;72830;-24
2024/03/13 09:09:29;;;;;;;7.00;3.50;;;;;;;4.03;70.53;98842.91;105892;1251;61164;-25
2024/03/13 09:11:57;;;;;;;5.70;4.10;;;;;;;3.76;71.17;98846.89;105765;1257;61153;-25
2024/03/13 09:14:26;;;;;;;8.20;5.40;;;;;;;3.59;71.91;98849.00;105801;1251;73402;-25
2024/03/13 09:16:53;;;;;;;8.10;5.20;;;;;;;3.57;72.76;98851.56;105744;1251;74316;-25
2024/03/13 09:19:21;;;;;;;11.90;6.80;;;;;;;4.10;71.32;98849.20;105648;1251;73995;-25
2024/03/13 09:21:48;;;;;;;6.30;4.10;;;;;;;4.20;70.31;98850.70;105772;1251;61131;-25
2024/03/13 09:24:16;;;;;;;11.60;6.80;;;;;;;4.26;70.23;98848.33;105698;1257;61135;-25
2024/03/13 09:26:44;;;;;;;7.50;5.30;;;;;;;4.09;70.51;98849.98;105924;1251;73962;-25
2024/03/13 09:29:11;;;;;;;6.40;4.90;;;;;;;3.80;71.06;98847.96;105715;1251;74441;-26
2024/03/13 09:31:39;;;;;;;13.10;8.00;;;;;;;3.79;71.94;98848.43;105924;1254;73987;-25
2024/03/13 09:34:09;;;;;;;6.80;4.20;;;;;;;4.25;70.53;98848.23;105753;1259;61164;-25
2024/03/13 09:36:37;;;;;;;10.50;6.20;;;;;;;4.40;69.78;98849.21;105883;1258;62821;-26
2024/03/13 09:39:06;;;;;;;5.00;3.90;;;;;;;4.30;69.50;98854.30;105942;1251;73175;-26
2024/03/13 09:41:34;;;;;;;8.40;5.50;;;;;;;4.03;70.40;98849.98;105946;1254;74319;-25
2024/03/13 09:44:04;;;;;;;6.50;5.20;;;;;;;3.70;71.25;98850.80;105937;1253;73048;-26
2024/03/13 09:46:32;;;;;;;9.00;6.30;;;;;;;3.65;72.38;98849.02;105827;1250;61142;-26
2024/03/13 09:48:59;;;;;;;4.70;4.20;;;;;;;4.24;70.95;98847.02;106023;1253;61096;-26
2024/03/13 09:51:27;;;;;;;4.90;4.40;;;;;;;4.34;70.10;98847.67;105950;1251;73242;-26
2024/03/13 09:53:54;;;;;;;9.80;5.90;;;;;;;4.23;70.30;98846.39;105763;1253;73170;-26
2024/03/13 09:56:21;;;;;;;8.10;5.40;;;;;;;4.06;70.67;98848.58;105910;1251;72142;-27
2024/03/13 09:58:50;;;;;;;9.30;6.40;;;;;;;3.83;71.49;98847.15;105884;1251;61069;-27
2024/03/13 10:01:27;;;;;;;8.50;5.00;;;;;;;4.00;71.93;98847.91;105904;1258;61120;-27
2024/03/13 10:04:02;;;;;;;4.10;3.30;;;;;;;4.49;70.30;98854.53;105750;1251;72909;-27
2024/03/13 10:06:29;;;;;;;7.20;5.90;;;;;;;4.45;69.93;98853.39;105925;1257;74002;-27
2024/03/13 10:08:56;;;;;;;8.90;5.50;;;;;;;4.23;70.33;98854.99;105818;1250;71463;-27
2024/03/13 10:11:23;;;;;;;7.80;5.40;;;;;;;3.99;71.21;98857.05;105565;1250;61049;-27
2024/03/13 10:13:51;;;;;;;5.70;4.20;;;;;;;3.86;71.88;98854.73;105769;1251;60982;-27
2024/03/13 10:16:19;;;;;;;10.60;6.10;;;;;;;4.10;71.65;98854.89;105726;1259;73933;-27
2024/03/13 10:18:49;;;;;;;8.80;5.60;;;;;;;4.49;70.51;98858.66;105733;1257;73645;-27
2024/03/13 10:21:23;;;;;;;9.90;5.50;;;;;;;4.56;69.89;98854.83;105711;1258;72997;-28
2024/03/13 10:23:50;;;;;;;3.90;3.10;;;;;;;4.24;70.46;98862.38;105898;1256;62598;-28
2024/03/13 10:26:19;;;;;;;5.00;3.60;;;;;;;3.97;71.44;98858.77;105982;1251;61048;-27
2024/03/13 10:28:48;;;;;;;8.60;6.10;;;;;;;3.67;72.55;98857.15;105893;1250;75078;-26
2024/03/13 10:31:16;;;;;;;15.00;7.00;;;;;;;3.92;72.09;98855.59;105880;1251;74758;-26
2024/03/13 10:33:43;;;;;;;6.30;4.90;;;;;;;4.16;71.27;98858.86;105768;1261;72341;-27
2024/03/13 10:36:11;;;;;;;6.20;4.20;;;;;;;4.21;71.22;98862.17;105595;1257;61104;-27
2024/03/13 10:38:41;;;;;;;9.70;5.10;;;;;;;4.05;71.58;98864.08;105984;1254;62360;-27
2024/03/13 10:41:08;;;;;;;7.60;5.00;;;;;;;3.80;72.29;98861.55;105835;1251;75342;-27
2024/03/13 10:43:35;;;;;;;5.60;4.50;;;;;;;3.96;72.50;98860.52;105530;1259;76084;-28
2024/03/13 10:46:04;;;;;;;7.70;5.40;;;;;;;4.62;70.61;98857.35;105806;1250;74166;-28
2024/03/13 10:48:32;;;;;;;10.90;6.60;;;;;;;4.95;68.87;98856.95;105988;1254;61188;-28
2024/03/13 10:51:00;;;;;;;9.20;5.40;;;;;;;4.57;69.45;98856.31;105953;1251;62180;-28
2024/03/13 10:53:27;;;;;;;9.40;6.50;;;;;;;4.34;70.21;98858.14;105776;1251;75490;-28
2024/03/13 10:55:55;;;;;;;7.70;4.10;;;;;;;4.24;70.74;98853.75;105919;1256;74786;-28
2024/03/13 10:58:23;;;;;;;5.00;2.90;;;;;;;4.64;70.28;98857.40;105959;1253;74196;-28
2024/03/13 11:00:51;;;;;;;7.00;4.10;;;;;;;5.09;68.69;98856.46;105962;1250;61193;-28
2024/03/13 11:03:19;;;;;;;10.60;6.90;;;;;;;5.00;68.39;98853.67;105806;1251;61720;-28
2024/03/13 11:05:48;;;;;;;8.30;5.20;;;;;;;4.54;69.73;98853.73;105902;1250;75300;-28
2024/03/13 11:08:15;;;;;;;8.80;5.80;;;;;;;4.41;70.57;98854.48;105987;1251;75913;-28
2024/03/13 11:10:44;;;;;;;5.80;4.50;;;;;;;4.10;71.73;98850.27;106042;1250;74379;-28
2024/03/13 11:13:28;;;;;;;7.70;5.40;;;;;;;4.63;70.82;98854.39;105884;1253;61164;-29
2024/03/13 11:15:56;;;;;;;9.60;6.40;;;;;;;4.89;69.71;98851.13;105904;1257;62321;-28
2024/03/13 11:18:23;;;;;;;6.20;4.90;;;;;;;4.62;70.22;98849.66;105723;1250;75361;-28
2024/03/13 11:21:00;;;;;;;9.90;6.90;;;;;;;4.38;71.11;98847.95;105545;1250;75879;-28
2024/03/13 11:23:29;;;;;;;7.60;5.90;;;;;;;3.99;72.19;98845.22;105661;1257;73015;-28
2024/03/13 11:26:01;;;;;;;10.70;6.90;;;;;;;4.22;72.10;98845.13;105641;1250;61173;-28
2024/03/13 11:28:31;;;;;;;9.80;5.80;;;;;;;4.69;70.45;98847.70;105736;1256;61823;-28
2024/03/13 11:30:59;;;;;;;7.20;5.00;;;;;;;4.51;70.89;98849.44;105997;1251;75371;-28
2024/03/13 11:33:26;;;;;;;9.00;5.60;;;;;;;4.44;71.04;98845.38;105756;1251;75916;-28
2024/03/13 11:35:54;;;;;;;9.20;6.20;;;;;;;4.27;71.66;98843.29;105869;1254;74157;-27
2024/03/13 11:38:21;;;;;;;8.30;6.40;;;;;;;4.19;72.30;98842.86;105903;1250;62985;-28
2024/03/13 11:40:48;;;;;;;8.10;5.60;;;;;;;4.75;70.95;98839.10;105929;1258;61979;-28
2024/03/13 11:43:23;;;;;;;6.60;5.00;;;;;;;4.84;70.27;98838.02;105753;1250;75615;-28
2024/03/13 11:45:50;;;;;;;8.40;5.60;;;;;;;4.66;70.43;98839.12;105719;1250;75911;-28
2024/03/13 11:48:18;;;;;;;10.20;6.10;;;;;;;4.38;70.78;98839.86;105765;1251;74177;-28
2024/03/13 11:51:02;;;;;;;6.40;4.20;;;;;;;4.14;72.03;98838.89;105747;1251;61455;-28
2024/03/13 11:53:33;;;;;;;8.30;6.30;;;;;;;4.56;71.47;98843.13;105902;1252;61773;-28
2024/03/13 11:56:04;;;;;;;6.20;4.10;;;;;;;5.00;70.13;98842.55;105847;1252;74140;-28
2024/03/13 11:58:33;;;;;;;8.00;5.10;;;;;;;4.92;69.98;98841.11;105736;1258;75926;-28
2024/03/13 12:01:00;;;;;;;9.30;6.40;;;;;;;4.75;70.03;98839.23;105767;1260;74498;-28